Weather at Komodo Airport

Public forecast

Using degrees Celsius for public forecast. Weather courtesy of forecast.io.

Closest aviation weather report (METAR) to Komodo Airport

Report is more than 6 hours old.

Closest report is Lombok International Airport, 215.1 nm (398.4 km) W.

2022/11/14 15:30 (retrieved 2 years ago)

WADL 141530Z 00000KT 6000 R13/2000 SCT016 27/26 Q1009 NOSIG

Closest aviation forecast (TAF) to Komodo Airport

Forecast is more than 12 hours old.

Closest forecast is Lombok International Airport, 215.1 nm (398.4 km) W.

2023/02/22 18:03 (retrieved 1 year ago)

TAF TAF WADL 221700Z 2218/2318 33005KT 7000 BKN016